createdAt,value
2018-12-19T00:01:02.666Z,101021.91
2018-12-19T00:06:08.263Z,101008.89
2018-12-19T00:11:11.272Z,101004.89
2018-12-19T00:16:14.213Z,100985.77
2018-12-19T00:21:17.463Z,100973.55
2018-12-19T00:26:20.400Z,100968.35
2018-12-19T00:31:23.349Z,100957.05
2018-12-19T00:36:26.317Z,100952.22
2018-12-19T00:41:29.255Z,100943.57
2018-12-19T00:46:32.187Z,100954.89
2018-12-19T00:51:35.135Z,100939.77
2018-12-19T00:56:38.098Z,100939.79
2018-12-19T01:01:41.049Z,100931.10
2018-12-19T01:06:44.023Z,100916.75
2018-12-19T01:11:46.984Z,100918.08
2018-12-19T01:16:49.948Z,100908.48
2018-12-19T01:21:52.951Z,100910.20
2018-12-19T01:26:55.910Z,100908.88
2018-12-19T01:31:59.360Z,100904.10
2018-12-19T01:37:02.338Z,100909.69
2018-12-19T01:42:05.445Z,100903.14
2018-12-19T01:52:28.291Z,100911.59
2018-12-19T02:02:56.424Z,100912.41
2018-12-19T02:07:59.382Z,100902.78
2018-12-19T02:13:02.367Z,100882.80
2018-12-19T02:18:05.340Z,100878.13
2018-12-19T02:23:08.290Z,100865.17
2018-12-19T02:28:11.227Z,100854.67
2018-12-19T02:33:14.186Z,100854.13
2018-12-19T02:38:17.124Z,100849.30
2018-12-19T02:43:20.059Z,100842.82
2018-12-19T02:48:23.020Z,100836.19
2018-12-19T02:53:25.985Z,100831.05
2018-12-19T02:58:28.967Z,100807.09
2018-12-19T03:03:31.944Z,100799.42
2018-12-19T03:08:34.940Z,100792.91
2018-12-19T03:13:38.032Z,100797.66
2018-12-19T03:18:41.003Z,100801.16
2018-12-19T03:23:44.009Z,100775.16
2018-12-19T03:28:46.989Z,100782.56
2018-12-19T03:33:49.948Z,100762.31
2018-12-19T03:38:52.892Z,100780.52
2018-12-19T03:43:55.835Z,100796.26
2018-12-19T03:48:58.793Z,100802.30
2018-12-19T03:54:01.768Z,100810.81
2018-12-19T03:59:04.721Z,100808.12
2018-12-19T04:04:07.707Z,100821.60
2018-12-19T04:09:10.661Z,100811.19
2018-12-19T04:14:13.716Z,100810.23
2018-12-19T04:19:16.706Z,100808.90
2018-12-19T04:29:40.850Z,100803.66
2018-12-19T04:34:44.469Z,100804.53
2018-12-19T04:39:47.993Z,100794.19
2018-12-19T04:44:52.913Z,100798.52
2018-12-19T04:49:56.413Z,100802.80
2018-12-19T04:54:59.910Z,100817.14
2018-12-19T05:00:04.488Z,100801.06
2018-12-19T05:05:07.906Z,100787.64
2018-12-19T05:10:12.542Z,100790.45
2018-12-19T05:15:16.124Z,100786.55
2018-12-19T05:20:20.214Z,100786.66
2018-12-19T05:25:23.647Z,100787.82
2018-12-19T05:30:27.175Z,100773.38
2018-12-19T05:35:31.441Z,100775.81
2018-12-19T05:40:34.811Z,100770.13
2018-12-19T05:45:38.179Z,100760.59
2018-12-19T05:50:41.641Z,100762.28
2018-12-19T05:55:48.124Z,100759.68
2018-12-19T06:00:51.507Z,100755.31
2018-12-19T06:05:55.299Z,100750.39
2018-12-19T06:10:59.537Z,100742.03
2018-12-19T06:16:07.441Z,100734.19
2018-12-19T06:21:14.070Z,100729.92
2018-12-19T06:26:19.802Z,100733.39
2018-12-19T06:31:25.407Z,100737.22
2018-12-19T06:36:29.414Z,100746.70
2018-12-19T06:46:57.467Z,100756.54
2018-12-19T06:52:01.743Z,100767.03
2018-12-19T06:57:04.924Z,100768.87
2018-12-19T07:02:07.908Z,100762.98
2018-12-19T07:07:10.855Z,100765.13
2018-12-19T07:12:15.438Z,100779.84
2018-12-19T07:17:20.118Z,100777.31
2018-12-19T07:22:25.176Z,100782.18
2018-12-19T07:27:31.182Z,100797.86
2018-12-19T07:32:35.690Z,100796.90
2018-12-19T07:37:40.451Z,100800.53
2018-12-19T07:42:46.361Z,100779.21
2018-12-19T07:47:50.952Z,100795.30
2018-12-19T07:52:56.101Z,100797.52
2018-12-19T07:57:59.208Z,100796.56
2018-12-19T08:03:02.204Z,100797.13
2018-12-19T08:08:05.189Z,100791.45
2018-12-19T08:13:08.140Z,100795.06
2018-12-19T08:18:11.111Z,100806.91
2018-12-19T08:23:14.083Z,100809.72
2018-12-19T08:28:17.067Z,100804.84
2018-12-19T08:33:20.033Z,100813.06
2018-12-19T08:49:11.891Z,100824.61
2018-12-19T08:54:16.385Z,100826.28
2018-12-19T08:59:21.024Z,100823.64
2018-12-19T09:10:04.551Z,100824.70
2018-12-19T09:15:27.756Z,100822.45
2018-12-19T09:25:59.727Z,100842.52
2018-12-19T09:31:05.921Z,100829.19
2018-12-19T09:36:12.158Z,100847.36
2018-12-19T09:41:17.163Z,100850.77
2018-12-19T09:46:21.673Z,100857.75
2018-12-19T09:56:53.496Z,100856.77
2018-12-19T10:01:59.173Z,100845.20
2018-12-19T10:07:03.682Z,100846.25
2018-12-19T10:17:28.981Z,100845.02
2018-12-19T10:22:33.781Z,100844.06
2018-12-19T10:27:41.636Z,100846.47
2018-12-19T10:32:56.276Z,100844.81
2018-12-19T10:43:27.877Z,100843.53
2018-12-19T10:48:32.236Z,100840.66
2018-12-19T10:53:36.902Z,100833.97
2018-12-19T10:58:42.120Z,100831.70
2018-12-19T11:09:10.089Z,100839.23
2018-12-19T11:14:16.448Z,100843.16
2018-12-19T11:19:22.739Z,100846.06
2018-12-19T11:24:27.167Z,100846.84
2018-12-19T11:29:31.745Z,100847.66
2018-12-19T11:34:36.725Z,100843.77
2018-12-19T11:39:41.430Z,100839.77
2018-12-19T11:44:46.459Z,100837.16
2018-12-19T11:49:51.498Z,100828.23
2018-12-19T11:54:56.224Z,100830.67
2018-12-19T12:00:00.461Z,100825.53
2018-12-19T12:05:05.974Z,100828.45
2018-12-19T12:10:12.133Z,100836.91
2018-12-19T12:15:17.625Z,100834.05
2018-12-19T12:20:22.726Z,100829.70
2018-12-19T12:25:27.208Z,100824.52
2018-12-19T12:30:35.420Z,100811.86
2018-12-19T12:35:39.031Z,100819.36
2018-12-19T12:40:42.102Z,100818.45
2018-12-19T12:45:45.077Z,100808.83
2018-12-19T12:50:48.068Z,100806.58
2018-12-19T12:55:51.169Z,100805.16
2018-12-19T13:00:54.272Z,100808.83
2018-12-19T13:05:57.754Z,100802.34
2018-12-19T13:11:00.887Z,100794.17
2018-12-19T13:16:04.029Z,100789.81
2018-12-19T13:21:07.022Z,100794.81
2018-12-19T13:26:10.546Z,100797.95
2018-12-19T13:31:13.648Z,100797.38
2018-12-19T13:36:16.877Z,100794.95
2018-12-19T13:41:19.857Z,100793.17
2018-12-19T13:46:22.937Z,100788.27
2018-12-19T13:51:26.051Z,100792.27
2018-12-19T13:56:29.166Z,100796.34
2018-12-19T14:01:32.161Z,100798.30
2018-12-19T14:06:35.173Z,100797.41
2018-12-19T14:11:38.176Z,100812.45
2018-12-19T14:16:41.178Z,100816.45
2018-12-19T14:21:44.187Z,100816.14
2018-12-19T14:26:47.296Z,100819.05
2018-12-19T14:31:50.399Z,100819.30
2018-12-19T14:36:53.500Z,100824.19
2018-12-19T14:41:57.012Z,100830.42
2018-12-19T14:47:01.038Z,100827.46
2018-12-19T14:52:04.647Z,100826.83
2018-12-19T14:57:08.913Z,100832.09
2018-12-19T15:02:14.525Z,100809.78
2018-12-19T15:12:37.748Z,100843.55
2018-12-19T15:23:48.369Z,100827.84
2018-12-19T15:34:16.924Z,100821.92
2018-12-19T15:39:20.834Z,100820.28
2018-12-19T15:44:23.872Z,100814.16
2018-12-19T15:49:27.794Z,100824.39
2018-12-19T15:54:31.794Z,100810.32
2018-12-19T15:59:35.323Z,100822.86
2018-12-19T16:04:38.890Z,100820.28
2018-12-19T16:09:43.013Z,100819.99
2018-12-19T16:14:46.428Z,100823.64
2018-12-19T16:19:49.515Z,100816.43
2018-12-19T16:24:52.485Z,100807.75
2018-12-19T16:29:55.900Z,100810.79
2018-12-19T16:34:58.856Z,100808.72
2018-12-19T16:40:01.849Z,100797.91
2018-12-19T16:45:06.323Z,100800.91
2018-12-19T16:50:09.454Z,100799.67
2018-12-19T16:55:12.459Z,100804.48
2018-12-19T17:00:15.497Z,100804.67
2018-12-19T17:05:18.655Z,100801.23
2018-12-19T17:10:21.631Z,100813.79
2018-12-19T17:15:24.726Z,100813.38
2018-12-19T17:20:27.805Z,100820.86
2018-12-19T17:30:51.147Z,100818.75
2018-12-19T17:35:55.537Z,100820.05
2018-12-19T17:40:58.964Z,100823.18
2018-12-19T17:46:02.146Z,100829.49
2018-12-19T17:51:05.302Z,100829.64
2018-12-19T17:56:08.274Z,100831.44
2018-12-19T18:01:11.494Z,100827.06
2018-12-19T18:06:14.514Z,100832.22
2018-12-19T18:11:17.502Z,100824.32
2018-12-19T18:16:20.503Z,100823.86
2018-12-19T18:21:23.587Z,100818.28
2018-12-19T18:26:27.645Z,100818.34
2018-12-19T18:31:30.693Z,100813.17
2018-12-19T18:36:33.901Z,100813.57
2018-12-19T18:41:36.908Z,100815.83
2018-12-19T18:46:40.028Z,100822.30
2018-12-19T18:51:43.076Z,100817.50
2018-12-19T19:02:01.254Z,100825.86
2018-12-19T19:07:04.598Z,100822.50
2018-12-19T19:12:07.664Z,100819.58
2018-12-19T19:17:10.697Z,100813.59
2018-12-19T19:22:13.699Z,100820.64
2018-12-19T19:27:16.687Z,100829.74
2018-12-19T19:32:19.783Z,100825.34
2018-12-19T19:37:22.789Z,100818.86
2018-12-19T19:42:25.873Z,100819.14
2018-12-19T19:47:28.877Z,100819.55
2018-12-19T19:52:31.981Z,100826.00
2018-12-19T19:57:34.939Z,100830.68
2018-12-19T20:02:38.096Z,100831.87
2018-12-19T20:07:41.095Z,100822.80
2018-12-19T20:12:44.082Z,100822.82
2018-12-19T20:17:47.156Z,100819.36
2018-12-19T20:22:50.265Z,100819.33
2018-12-19T20:27:53.239Z,100813.66
2018-12-19T20:32:56.219Z,100813.51
2018-12-19T20:37:59.240Z,100824.66
2018-12-19T20:43:06.579Z,100818.03
2018-12-19T20:48:07.255Z,100823.18
2018-12-19T20:53:10.225Z,100832.26
2018-12-19T20:58:13.227Z,100827.92
2018-12-19T21:03:16.200Z,100831.77
2018-12-19T21:08:19.404Z,100831.61
2018-12-19T21:13:22.383Z,100834.83
2018-12-19T21:18:31.159Z,100828.98
2018-12-19T21:23:34.154Z,100831.92
2018-12-19T21:28:37.153Z,100827.11
2018-12-19T21:33:40.132Z,100831.02
2018-12-19T21:38:43.241Z,100826.31
2018-12-19T21:43:46.266Z,100818.90
2018-12-19T21:48:49.316Z,100817.09
2018-12-19T21:53:52.281Z,100816.59
2018-12-19T21:58:55.325Z,100813.88
2018-12-19T22:03:58.354Z,100812.94
2018-12-19T22:09:01.647Z,100818.62
2018-12-19T22:14:04.882Z,100820.76
2018-12-19T22:19:07.936Z,100818.91
2018-12-19T22:24:11.028Z,100818.62
2018-12-19T22:29:14.100Z,100827.37
2018-12-19T22:34:17.112Z,100828.48
2018-12-19T22:39:20.357Z,100821.67
2018-12-19T22:44:23.323Z,100820.56
2018-12-19T22:49:26.323Z,100820.60
2018-12-19T22:54:29.483Z,100813.13
2018-12-19T22:59:32.676Z,100812.09
2018-12-19T23:04:35.744Z,100802.47
2018-12-19T23:09:38.822Z,100798.50
2018-12-19T23:14:42.246Z,100803.06
2018-12-19T23:19:46.613Z,100804.62
2018-12-19T23:24:49.645Z,100793.66
2018-12-19T23:29:52.697Z,100806.14
2018-12-19T23:34:56.609Z,100798.22
2018-12-19T23:39:59.760Z,100797.27
2018-12-19T23:50:24.438Z,100790.64
2018-12-19T23:55:38.334Z,100799.61
